Time;durP1;ratioP1;P1;durP2;ratioP2;P2;SDS_P1;SDS_P2;PMS_P1;PMS_P2;Temp;Humidity;BMP_temperature;BMP_pressure;BME280_temperature;BME280_humidity;BME280_pressure;Samples;Min_cycle;Max_cycle;Signal;HPM_P1;HPM_P2
2021/01/19 00:01:30;;;;;;;38.60;25.10;;;5.50;99.90;;;;;;4128653;28;20070;-75
2021/01/19 00:03:30;;;;;;;34.60;22.90;;;5.50;99.90;;;;;;4114907;28;20466;-75
2021/01/19 00:05:31;;;;;;;37.17;24.55;;;5.40;99.90;;;;;;4113189;28;20549;-75
2021/01/19 00:07:32;;;;;;;36.28;24.30;;;5.50;99.90;;;;;;4114574;28;20033;-74
2021/01/19 00:09:32;;;;;;;40.42;23.95;;;5.50;99.90;;;;;;4114739;28;20043;-75
2021/01/19 00:11:33;;;;;;;32.38;23.10;;;5.40;99.90;;;;;;4118941;28;20034;-75
2021/01/19 00:13:33;;;;;;;33.83;21.88;;;5.40;99.90;;;;;;4122901;28;20038;-75
2021/01/19 00:15:34;;;;;;;36.20;22.10;;;5.40;99.90;;;;;;4113308;28;20034;-75
2021/01/19 00:17:36;;;;;;;34.40;20.83;;;5.40;99.90;;;;;;4120127;28;20440;-75
2021/01/19 00:19:36;;;;;;;33.53;19.38;;;5.40;99.90;;;;;;4140285;28;20037;-75
2021/01/19 00:21:37;;;;;;;25.52;15.23;;;5.40;99.90;;;;;;4119904;28;20039;-75
2021/01/19 00:23:38;;;;;;;26.98;16.48;;;5.50;99.90;;;;;;4114491;28;20035;-75
2021/01/19 00:25:42;;;;;;;25.70;13.32;;;5.50;99.90;;;;;;4122387;28;20023;-75
2021/01/19 00:27:43;;;;;;;16.77;12.45;;;5.50;99.90;;;;;;4112965;28;20078;-75
2021/01/19 00:29:43;;;;;;;23.05;13.68;;;5.50;99.90;;;;;;4119515;28;20034;-75
2021/01/19 00:31:44;;;;;;;23.02;13.77;;;5.50;99.90;;;;;;4113811;28;20562;-74
2021/01/19 00:33:44;;;;;;;19.67;13.63;;;5.50;99.90;;;;;;4113360;28;20126;-75
2021/01/19 00:35:45;;;;;;;19.10;12.35;;;5.40;99.90;;;;;;4125311;28;20026;-75
2021/01/19 00:37:46;;;;;;;22.52;12.77;;;5.40;99.90;;;;;;4130748;28;20037;-74
2021/01/19 00:39:46;;;;;;;15.13;10.95;;;5.40;99.90;;;;;;4129429;28;20390;-75
2021/01/19 00:41:47;;;;;;;17.65;9.95;;;5.40;99.90;;;;;;4117264;28;20065;-75
2021/01/19 00:43:48;;;;;;;29.50;11.38;;;5.40;99.90;;;;;;4113867;28;20027;-75
2021/01/19 00:45:48;;;;;;;28.48;9.80;;;5.40;99.90;;;;;;4114430;28;20031;-74
2021/01/19 00:47:52;;;;;;;17.45;10.15;;;5.40;99.90;;;;;;4114065;28;20046;-75
2021/01/19 00:49:52;;;;;;;17.02;9.60;;;5.40;99.90;;;;;;4114065;28;20085;-74
2021/01/19 00:51:53;;;;;;;13.60;8.18;;;5.40;99.90;;;;;;4113688;28;20541;-75
2021/01/19 00:53:53;;;;;;;14.30;8.13;;;5.40;99.90;;;;;;4117255;28;20030;-75
2021/01/19 00:55:54;;;;;;;12.82;7.35;;;5.40;99.90;;;;;;4129588;28;20453;-75
2021/01/19 00:57:55;;;;;;;19.60;7.95;;;5.40;99.90;;;;;;4112890;28;20023;-75
2021/01/19 00:59:56;;;;;;;16.70;7.78;;;5.40;99.90;;;;;;4128978;28;20119;-75
2021/01/19 01:01:57;;;;;;;15.82;8.07;;;5.40;99.90;;;;;;4114430;28;20339;-75
2021/01/19 01:03:57;;;;;;;12.13;6.20;;;5.40;99.90;;;;;;4113840;28;20031;-75
2021/01/19 01:05:58;;;;;;;16.67;8.13;;;5.40;99.90;;;;;;4114291;28;20042;-75
2021/01/19 01:08:01;;;;;;;10.93;5.85;;;5.40;99.90;;;;;;4113973;28;20050;-75
2021/01/19 01:10:06;;;;;;;;;;;5.40;99.90;;;;;;4098485;28;20126;-76
2021/01/19 01:12:08;;;;;;;14.10;7.10;;;5.40;99.90;;;;;;4097058;28;19935;-75
2021/01/19 01:14:08;;;;;;;15.13;6.43;;;5.30;99.90;;;;;;4100813;28;20031;-75
2021/01/19 01:16:13;;;;;;;19.60;6.78;;;5.30;99.90;;;;;;4101252;28;20082;-75
2021/01/19 01:18:14;;;;;;;23.42;8.30;;;5.30;99.90;;;;;;4106967;28;20031;-75
2021/01/19 01:20:15;;;;;;;13.95;6.13;;;5.30;99.90;;;;;;4106181;28;20036;-75
2021/01/19 01:22:16;;;;;;;10.40;5.75;;;5.40;99.90;;;;;;4099896;28;20520;-74
2021/01/19 01:24:17;;;;;;;15.95;7.07;;;5.30;99.90;;;;;;4099321;28;20482;-74
2021/01/19 01:26:19;;;;;;;14.63;6.13;;;5.30;99.90;;;;;;4098604;28;20027;-74
2021/01/19 01:28:19;;;;;;;15.90;6.90;;;5.20;99.90;;;;;;4099507;28;20023;-73
2021/01/19 01:30:20;;;;;;;17.25;6.13;;;5.20;99.90;;;;;;4099687;28;20443;-74
2021/01/19 01:32:20;;;;;;;13.85;6.30;;;5.20;99.90;;;;;;4099029;28;20036;-74
2021/01/19 01:34:21;;;;;;;12.38;5.30;;;5.10;99.90;;;;;;4097841;28;20066;-74
2021/01/19 01:36:21;;;;;;;12.05;6.40;;;5.10;99.90;;;;;;4113870;28;20450;-73
2021/01/19 01:38:22;;;;;;;17.75;5.00;;;5.10;99.90;;;;;;4099436;28;20070;-74
2021/01/19 01:40:28;;;;;;;17.08;5.35;;;5.10;99.90;;;;;;4099603;28;20023;-74
2021/01/19 01:42:28;;;;;;;11.23;5.30;;;5.10;99.90;;;;;;4098350;28;20032;-73
2021/01/19 01:44:29;;;;;;;20.00;6.63;;;5.10;99.90;;;;;;4100105;28;20034;-74
2021/01/19 01:46:33;;;;;;;11.25;4.95;;;5.10;99.90;;;;;;4097632;28;20467;-74
2021/01/19 01:48:33;;;;;;;16.65;5.10;;;5.00;99.90;;;;;;4097221;28;20047;-74
2021/01/19 01:50:37;;;;;;;18.90;5.57;;;5.00;99.90;;;;;;4099006;28;20435;-74
2021/01/19 01:52:38;;;;;;;11.93;5.35;;;5.10;99.90;;;;;;4099416;28;20080;-74
2021/01/19 01:54:39;;;;;;;13.65;6.35;;;5.00;99.90;;;;;;4098890;28;20115;-74
2021/01/19 01:56:40;;;;;;;13.88;6.00;;;5.00;99.90;;;;;;4097550;28;20023;-74
2021/01/19 01:58:40;;;;;;;16.40;5.80;;;5.00;99.90;;;;;;4097296;28;20042;-74
2021/01/19 02:00:41;;;;;;;9.55;4.47;;;5.00;99.90;;;;;;4112825;28;20549;-74
2021/01/19 02:02:53;;;;;;;20.80;6.28;;;5.00;99.90;;;;;;4102436;28;20090;-74
2021/01/19 02:04:56;;;;;;;13.43;5.68;;;5.00;99.90;;;;;;4098825;28;20038;-75
2021/01/19 02:06:59;;;;;;;13.52;5.85;;;5.10;99.90;;;;;;4097849;28;20027;-74
2021/01/19 02:09:10;;;;;;;13.35;6.00;;;5.00;99.90;;;;;;4098224;28;20059;-75
2021/01/19 02:11:42;;;;;;;21.30;6.53;;;5.10;99.90;;;;;;4112305;28;20090;-75
2021/01/19 02:14:06;;;;;;;15.77;5.05;;;5.10;99.90;;;;;;4097700;28;20031;-74
2021/01/19 02:16:15;;;;;;;11.35;5.22;;;5.20;99.90;;;;;;4097551;28;20023;-74
2021/01/19 02:18:37;;;;;;;12.48;4.18;;;5.20;99.90;;;;;;4097762;28;20039;-75
2021/01/19 02:20:48;;;;;;;15.32;5.18;;;5.30;99.90;;;;;;4097371;28;20118;-75
2021/01/19 02:23:06;;;;;;;13.57;5.00;;;5.30;99.90;;;;;;4104181;28;20031;-75
2021/01/19 02:25:32;;;;;;;14.60;5.82;;;5.30;99.90;;;;;;4110015;28;20035;-73
2021/01/19 02:27:57;;;;;;;14.65;5.20;;;5.30;99.90;;;;;;4110634;28;20023;-75
2021/01/19 02:30:18;;;;;;;10.48;6.13;;;5.30;99.90;;;;;;4110350;28;20043;-75
2021/01/19 02:32:44;;;;;;;13.18;5.20;;;5.30;99.90;;;;;;4108655;28;20027;-75
2021/01/19 02:34:52;;;;;;;14.15;4.72;;;5.30;99.90;;;;;;4114801;28;20500;-75
2021/01/19 02:37:01;;;;;;;7.63;4.75;;;5.20;99.90;;;;;;4126042;28;20030;-74
2021/01/19 02:39:04;;;;;;;15.48;5.75;;;5.20;99.90;;;;;;4124469;28;20653;-75
2021/01/19 02:41:05;;;;;;;11.30;5.72;;;5.20;99.90;;;;;;4125659;28;20062;-74
2021/01/19 02:43:13;;;;;;;10.95;4.30;;;5.20;99.90;;;;;;4115792;28;20038;-75
2021/01/19 02:45:14;;;;;;;8.98;5.55;;;5.20;99.90;;;;;;4125307;28;20077;-74
2021/01/19 02:47:15;;;;;;;17.50;7.03;;;5.10;99.90;;;;;;4109529;28;20027;-74
2021/01/19 02:49:15;;;;;;;15.23;6.13;;;5.10;99.90;;;;;;4114967;28;20478;-74
2021/01/19 02:51:16;;;;;;;18.20;5.65;;;5.10;99.90;;;;;;4114939;28;20030;-74
2021/01/19 02:53:18;;;;;;;16.70;5.82;;;5.00;99.90;;;;;;4113686;28;20402;-74
2021/01/19 02:55:19;;;;;;;15.95;5.72;;;5.00;99.90;;;;;;4115074;28;20054;-74
2021/01/19 02:57:44;;;;;;;15.38;5.60;;;5.00;99.90;;;;;;4114888;28;20027;-75
2021/01/19 03:00:20;;;;;;;15.50;5.38;;;5.00;99.90;;;;;;4118762;28;20049;-74
2021/01/19 03:02:25;;;;;;;12.07;5.65;;;4.90;99.90;;;;;;4113402;28;20092;-75
2021/01/19 03:04:29;;;;;;;20.90;5.93;;;4.90;99.90;;;;;;4114907;28;20467;-75
2021/01/19 03:06:31;;;;;;;20.35;5.88;;;4.80;99.90;;;;;;4113323;28;20038;-74
2021/01/19 03:08:34;;;;;;;16.73;6.05;;;4.80;99.90;;;;;;4113780;28;20086;-75
2021/01/19 03:10:39;;;;;;;17.75;6.35;;;4.70;99.90;;;;;;4115015;28;20109;-75
2021/01/19 03:12:43;;;;;;;15.35;6.25;;;4.60;99.90;;;;;;4113667;28;20110;-74
2021/01/19 03:14:44;;;;;;;16.27;5.75;;;4.60;99.90;;;;;;4113834;28;20412;-74
2021/01/19 03:16:45;;;;;;;19.02;7.55;;;4.50;99.90;;;;;;4114585;28;20034;-74
2021/01/19 03:18:49;;;;;;;13.98;7.35;;;4.50;99.90;;;;;;4114915;28;20486;-75
2021/01/19 03:20:50;;;;;;;19.80;7.28;;;4.40;99.90;;;;;;4115097;28;20545;-75
2021/01/19 03:22:51;;;;;;;17.33;7.53;;;4.40;99.90;;;;;;4114763;28;20031;-74
2021/01/19 03:24:51;;;;;;;15.60;7.35;;;4.30;99.90;;;;;;4114711;28;20033;-74
2021/01/19 03:26:52;;;;;;;15.80;6.45;;;4.30;99.90;;;;;;4114587;28;20445;-74
2021/01/19 03:28:52;;;;;;;20.42;7.63;;;4.30;99.90;;;;;;4114635;28;20034;-74
2021/01/19 03:30:53;;;;;;;16.08;7.32;;;4.30;99.90;;;;;;4114717;28;20340;-74
2021/01/19 03:32:54;;;;;;;29.42;8.23;;;4.30;99.90;;;;;;4113058;28;20034;-74
2021/01/19 03:34:55;;;;;;;13.32;5.97;;;4.30;99.90;;;;;;4113944;28;20027;-75
2021/01/19 03:36:55;;;;;;;23.67;9.18;;;4.20;99.90;;;;;;4114628;28;20030;-74
2021/01/19 03:38:56;;;;;;;23.17;8.30;;;4.20;99.90;;;;;;4114706;28;20030;-74
2021/01/19 03:40:57;;;;;;;13.57;7.95;;;4.20;99.90;;;;;;4114467;28;20483;-75
2021/01/19 03:42:58;;;;;;;16.23;9.20;;;4.20;99.90;;;;;;4114885;28;20170;-75
2021/01/19 03:44:59;;;;;;;16.55;8.98;;;4.20;99.90;;;;;;4114619;28;20038;-74
2021/01/19 03:46:59;;;;;;;17.48;7.57;;;4.20;99.90;;;;;;4114254;28;20039;-75
2021/01/19 03:49:00;;;;;;;22.00;8.65;;;4.30;99.90;;;;;;4114250;28;20449;-74
2021/01/19 03:51:01;;;;;;;23.83;8.95;;;4.20;99.90;;;;;;4114080;28;20038;-75
2021/01/19 03:53:02;;;;;;;17.45;9.35;;;4.20;99.90;;;;;;4114504;28;20027;-74
2021/01/19 03:55:03;;;;;;;22.25;8.95;;;4.10;99.90;;;;;;4114401;28;20022;-74
2021/01/19 03:57:03;;;;;;;21.65;9.52;;;4.10;99.90;;;;;;4112885;28;20055;-74
2021/01/19 03:59:04;;;;;;;17.27;9.45;;;4.10;99.90;;;;;;4114180;28;20031;-74
2021/01/19 04:01:04;;;;;;;21.08;9.23;;;4.10;99.90;;;;;;4114646;28;20058;-74
2021/01/19 04:03:05;;;;;;;16.88;8.38;;;4.10;99.90;;;;;;4114546;28;20070;-74
2021/01/19 04:05:07;;;;;;;30.60;11.65;;;4.10;99.90;;;;;;4114311;28;20026;-74
2021/01/19 04:07:07;;;;;;;14.48;8.43;;;4.10;99.90;;;;;;4114339;28;20038;-73
2021/01/19 04:09:08;;;;;;;19.55;10.90;;;4.10;99.90;;;;;;4114099;28;20026;-74
2021/01/19 04:11:09;;;;;;;23.65;10.93;;;4.10;99.90;;;;;;4114275;28;20574;-74
2021/01/19 04:13:09;;;;;;;16.65;9.93;;;4.10;99.90;;;;;;4114385;28;20565;-74
2021/01/19 04:15:10;;;;;;;25.52;12.35;;;4.10;99.90;;;;;;4114462;28;20047;-74
2021/01/19 04:17:11;;;;;;;19.38;12.05;;;4.10;99.90;;;;;;4113932;28;20490;-73
2021/01/19 04:19:11;;;;;;;22.92;11.02;;;4.10;99.90;;;;;;4129029;28;20078;-73
2021/01/19 04:21:12;;;;;;;25.80;12.73;;;4.20;99.90;;;;;;4113404;28;20796;-73
2021/01/19 04:23:14;;;;;;;21.73;11.60;;;4.20;99.90;;;;;;4124506;28;20026;-74
2021/01/19 04:25:14;;;;;;;17.38;10.35;;;4.20;99.90;;;;;;4129593;28;20034;-73
2021/01/19 04:27:15;;;;;;;21.55;11.60;;;4.20;99.90;;;;;;4129588;28;20089;-73
2021/01/19 04:29:16;;;;;;;21.83;11.80;;;4.20;99.90;;;;;;4160505;28;20382;-73
2021/01/19 04:31:16;;;;;;;22.63;11.88;;;4.20;99.90;;;;;;4126894;28;20187;-73
2021/01/19 04:33:17;;;;;;;27.95;13.88;;;4.20;99.90;;;;;;4126401;28;20023;-73
2021/01/19 04:35:17;;;;;;;21.17;11.75;;;4.20;99.90;;;;;;4144121;28;20026;-73
2021/01/19 04:37:18;;;;;;;24.75;12.43;;;4.30;99.90;;;;;;4128042;28;20027;-73
2021/01/19 04:39:19;;;;;;;16.05;11.73;;;4.30;99.90;;;;;;4127793;28;20488;-73
2021/01/19 04:41:20;;;;;;;21.55;11.18;;;4.30;99.90;;;;;;4127111;28;20104;-73
2021/01/19 04:43:23;;;;;;;20.42;12.32;;;4.40;99.90;;;;;;4104132;28;20093;-73
2021/01/19 04:45:24;;;;;;;20.40;11.65;;;4.30;99.90;;;;;;4129062;28;20089;-73
2021/01/19 04:47:26;;;;;;;15.80;10.10;;;4.30;99.90;;;;;;4130113;28;20565;-73
2021/01/19 04:49:28;;;;;;;18.45;11.27;;;4.30;99.90;;;;;;4147033;28;20078;-73
2021/01/19 04:51:33;;;;;;;20.95;11.25;;;4.30;99.90;;;;;;4137688;28;20035;-73
2021/01/19 04:53:37;;;;;;;22.60;12.43;;;4.30;99.90;;;;;;4116849;28;20030;-73
2021/01/19 04:55:51;;;;;;;18.15;10.70;;;4.30;99.90;;;;;;4117003;28;20118;-73
2021/01/19 04:58:00;;;;;;;18.13;12.32;;;4.40;99.90;;;;;;4131343;28;20054;-73
2021/01/19 05:00:06;;;;;;;25.35;12.57;;;4.40;99.90;;;;;;4116808;28;20023;-73
2021/01/19 05:02:15;;;;;;;26.30;11.80;;;4.30;99.90;;;;;;4100755;28;20054;-73
2021/01/19 05:04:33;;;;;;;20.10;11.60;;;4.40;99.90;;;;;;4101597;28;20891;-74
2021/01/19 05:06:57;;;;;;;15.45;11.10;;;4.40;99.90;;;;;;4092011;28;20035;-73
2021/01/19 05:08:58;;;;;;;20.73;11.32;;;4.40;99.90;;;;;;4099571;28;20031;-73
2021/01/19 05:11:00;;;;;;;15.73;8.35;;;4.40;99.90;;;;;;4100259;28;20383;-73
2021/01/19 05:13:09;;;;;;;14.98;10.70;;;4.40;99.90;;;;;;4099678;28;20077;-74
2021/01/19 05:15:12;;;;;;;13.90;9.35;;;4.50;99.90;;;;;;4100119;28;20034;-73
2021/01/19 05:17:13;;;;;;;23.70;12.73;;;4.50;99.90;;;;;;4100290;28;20035;-73
2021/01/19 05:19:16;;;;;;;20.42;10.77;;;4.50;99.90;;;;;;4099226;28;20027;-72
2021/01/19 05:21:17;;;;;;;14.95;9.88;;;4.50;99.90;;;;;;4098911;28;20046;-73
2021/01/19 05:23:22;;;;;;;14.32;9.95;;;4.50;99.90;;;;;;4100056;28;20182;-73
2021/01/19 05:25:23;;;;;;;13.93;10.48;;;4.50;99.90;;;;;;4099783;28;20028;-73
2021/01/19 05:27:23;;;;;;;16.40;10.40;;;4.60;99.90;;;;;;4098894;28;20439;-73
2021/01/19 05:29:24;;;;;;;13.02;9.55;;;4.60;99.90;;;;;;4098616;28;20032;-73
2021/01/19 05:31:30;;;;;;;12.20;9.20;;;4.50;99.90;;;;;;4098743;28;20109;-73
2021/01/19 05:33:30;;;;;;;15.00;10.02;;;4.60;99.90;;;;;;4097253;28;20028;-74
2021/01/19 05:35:31;;;;;;;15.50;9.60;;;4.60;99.90;;;;;;4097450;28;20117;-73
2021/01/19 05:37:31;;;;;;;14.70;10.52;;;4.60;99.90;;;;;;4098850;28;20287;-73
2021/01/19 05:39:32;;;;;;;13.13;8.68;;;4.50;99.90;;;;;;4098753;28;20042;-72
2021/01/19 05:41:41;;;;;;;14.38;10.63;;;4.60;99.90;;;;;;4098784;28;20336;-73
2021/01/19 05:43:42;;;;;;;15.32;10.02;;;4.60;99.90;;;;;;4098888;28;20027;-73
2021/01/19 05:45:52;;;;;;;8.90;6.65;;;4.60;99.90;;;;;;4099516;28;20035;-73
2021/01/19 05:47:54;;;;;;;11.05;7.68;;;4.70;99.90;;;;;;4100344;28;20562;-73
2021/01/19 05:49:55;;;;;;;10.02;7.55;;;4.70;99.90;;;;;;4098531;28;20442;-73
2021/01/19 05:52:03;;;;;;;14.23;9.45;;;4.70;99.90;;;;;;4099181;28;20039;-73
2021/01/19 05:54:04;;;;;;;15.02;8.52;;;4.70;99.90;;;;;;4085756;28;20039;-74
2021/01/19 05:56:05;;;;;;;13.88;8.57;;;4.70;99.90;;;;;;4100083;28;20031;-73
2021/01/19 05:58:16;;;;;;;11.95;9.10;;;4.70;99.90;;;;;;4098233;28;20102;-73
2021/01/19 06:00:18;;;;;;;11.02;7.78;;;4.70;99.90;;;;;;4098391;28;20031;-72
2021/01/19 06:02:21;;;;;;;11.70;8.45;;;4.70;99.90;;;;;;4098254;28;20027;-72
2021/01/19 06:04:33;;;;;;;9.68;7.78;;;4.70;99.90;;;;;;4098600;28;20047;-72
2021/01/19 06:06:33;;;;;;;17.98;9.98;;;4.80;99.90;;;;;;4104845;28;20043;-72
2021/01/19 06:08:35;;;;;;;14.95;9.90;;;4.80;99.90;;;;;;4104617;28;20660;-72
2021/01/19 06:10:36;;;;;;;18.27;11.30;;;4.80;99.90;;;;;;4106279;28;20479;-72
2021/01/19 06:12:37;;;;;;;13.40;9.35;;;4.80;99.90;;;;;;4107466;28;20019;-73
2021/01/19 06:14:38;;;;;;;17.23;10.23;;;4.80;99.90;;;;;;4108593;28;20497;-73
2021/01/19 06:16:39;;;;;;;14.32;10.40;;;4.80;99.90;;;;;;4108656;28;20019;-72
2021/01/19 06:18:39;;;;;;;10.43;8.18;;;4.90;99.90;;;;;;4107694;28;20015;-74
2021/01/19 06:20:41;;;;;;;12.20;8.77;;;4.90;99.90;;;;;;4105019;28;20494;-72
2021/01/19 06:22:42;;;;;;;14.13;9.30;;;4.90;99.90;;;;;;4099888;28;20059;-73
2021/01/19 06:24:45;;;;;;;12.88;9.23;;;4.90;99.90;;;;;;4106682;28;20450;-72
2021/01/19 06:26:46;;;;;;;13.43;9.43;;;4.90;99.90;;;;;;4108647;28;20106;-73
2021/01/19 06:28:46;;;;;;;13.98;10.20;;;5.00;99.90;;;;;;4100335;28;20062;-73
2021/01/19 06:30:47;;;;;;;13.82;8.38;;;5.00;99.90;;;;;;4100109;28;20027;-73
2021/01/19 06:32:49;;;;;;;10.35;7.70;;;5.00;99.90;;;;;;4095537;28;20053;-73
2021/01/19 06:34:49;;;;;;;12.35;8.57;;;5.00;99.90;;;;;;4099846;28;20062;-73
2021/01/19 06:36:50;;;;;;;11.20;8.05;;;5.00;99.90;;;;;;4099142;28;20406;-73
2021/01/19 06:38:51;;;;;;;14.65;9.10;;;5.10;99.90;;;;;;4098416;28;20083;-73
2021/01/19 06:40:55;;;;;;;13.23;7.90;;;5.10;99.90;;;;;;4099655;28;20035;-73
2021/01/19 06:43:04;;;;;;;12.30;8.90;;;5.10;99.90;;;;;;4100323;28;20042;-73
2021/01/19 06:45:10;;;;;;;12.88;8.98;;;5.10;99.90;;;;;;4098463;28;20072;-73
2021/01/19 06:47:13;;;;;;;9.77;7.50;;;5.10;99.90;;;;;;4097916;28;20047;-73
2021/01/19 06:49:14;;;;;;;11.10;8.13;;;5.20;99.90;;;;;;4097980;28;20068;-73
2021/01/19 06:51:15;;;;;;;9.73;7.57;;;5.20;99.90;;;;;;4097176;28;20031;-73
2021/01/19 06:53:28;;;;;;;14.23;9.32;;;5.20;99.90;;;;;;4098658;28;20071;-73
2021/01/19 06:55:57;;;;;;;12.67;8.00;;;5.20;99.90;;;;;;4098817;28;20471;-73
2021/01/19 06:58:15;;;;;;;11.07;8.23;;;5.20;99.90;;;;;;4109976;28;20031;-73
2021/01/19 07:00:20;;;;;;;15.43;9.80;;;5.20;99.90;;;;;;4096979;28;20376;-72
2021/01/19 07:02:23;;;;;;;13.02;9.70;;;5.20;99.90;;;;;;4099472;28;20016;-71
2021/01/19 07:04:25;;;;;;;11.98;8.98;;;5.30;99.90;;;;;;4100173;28;20085;-73
2021/01/19 07:06:54;;;;;;;10.57;8.65;;;5.30;99.90;;;;;;4099022;28;20085;-72
2021/01/19 07:09:20;;;;;;;7.95;5.68;;;5.30;99.90;;;;;;4100296;28;20047;-72
2021/01/19 07:11:26;;;;;;;11.25;8.88;;;5.30;99.90;;;;;;4095323;28;20078;-73
2021/01/19 07:13:27;;;;;;;11.27;7.28;;;5.40;99.90;;;;;;4099173;28;20087;-73
2021/01/19 07:15:52;;;;;;;9.23;7.97;;;5.40;99.90;;;;;;4099430;28;20071;-73
2021/01/19 07:18:17;;;;;;;13.82;8.77;;;5.40;99.90;;;;;;4095294;28;20390;-74
2021/01/19 07:20:31;;;;;;;10.77;7.68;;;5.40;99.90;;;;;;4091051;28;20070;-73
2021/01/19 07:22:35;;;;;;;;;;;5.40;99.90;;;;;;4100063;28;20086;-73
2021/01/19 07:24:39;;;;;;;8.25;6.18;;;5.40;99.90;;;;;;4106965;28;19918;-72
2021/01/19 07:26:42;;;;;;;9.15;7.03;;;5.50;99.90;;;;;;4091189;28;20492;-73
2021/01/19 07:28:43;;;;;;;9.70;6.45;;;5.50;99.90;;;;;;4087452;28;20034;-72
2021/01/19 07:30:43;;;;;;;8.13;6.13;;;5.50;99.90;;;;;;4097152;28;20032;-72
2021/01/19 07:32:47;;;;;;;12.93;7.95;;;5.50;99.90;;;;;;4097450;28;20094;-72
2021/01/19 07:34:48;;;;;;;7.43;6.65;;;5.60;99.90;;;;;;4098576;28;20077;-72
2021/01/19 07:36:55;;;;;;;11.15;8.85;;;5.50;99.90;;;;;;4094144;28;20082;-72
2021/01/19 07:38:56;;;;;;;12.88;7.80;;;5.50;99.90;;;;;;4099498;28;20107;-72
2021/01/19 07:40:57;;;;;;;11.88;8.30;;;5.50;99.90;;;;;;4099358;28;20034;-73
2021/01/19 07:42:57;;;;;;;11.50;8.00;;;5.60;99.90;;;;;;4095032;28;20039;-72
2021/01/19 07:45:01;;;;;;;10.88;7.65;;;5.60;99.90;;;;;;4097360;28;20043;-72
2021/01/19 07:47:34;;;;;;;10.13;7.53;;;5.60;99.90;;;;;;4115456;28;20493;-73
2021/01/19 07:49:35;;;;;;;10.00;6.63;;;5.70;99.90;;;;;;4111289;28;20058;-71
2021/01/19 07:51:42;;;;;;;10.63;7.50;;;5.70;99.90;;;;;;4115912;28;20085;-72
2021/01/19 07:53:54;;;;;;;10.15;8.25;;;5.80;99.90;;;;;;4113048;28;20561;-71
2021/01/19 07:55:55;;;;;;;10.50;7.47;;;5.80;99.90;;;;;;4089604;28;20089;-72
2021/01/19 07:57:55;;;;;;;9.90;6.97;;;5.80;99.90;;;;;;4109074;28;20031;-72
2021/01/19 07:59:57;;;;;;;7.45;5.78;;;5.80;99.90;;;;;;4103290;28;20035;-73
2021/01/19 08:01:58;;;;;;;9.30;6.07;;;5.80;99.90;;;;;;4105319;28;20035;-72
2021/01/19 08:04:10;;;;;;;9.88;6.93;;;5.80;99.90;;;;;;4119722;28;20114;-72
2021/01/19 08:06:11;;;;;;;9.43;7.03;;;5.90;99.90;;;;;;4135163;28;20030;-72
2021/01/19 08:08:18;;;;;;;11.20;6.60;;;5.90;99.90;;;;;;4107544;28;20554;-71
2021/01/19 08:10:28;;;;;;;12.38;6.70;;;5.90;99.90;;;;;;4108415;28;20097;-72
2021/01/19 08:12:35;;;;;;;5.05;4.30;;;5.90;99.90;;;;;;4107438;28;20031;-72
2021/01/19 08:14:40;;;;;;;9.02;6.40;;;5.90;99.90;;;;;;4086191;28;20044;-74
2021/01/19 08:16:48;;;;;;;6.07;4.72;;;6.00;99.90;;;;;;4086052;28;20035;-74
2021/01/19 08:18:57;;;;;;;4.75;4.25;;;6.00;99.90;;;;;;4084357;28;20042;-73
2021/01/19 08:21:07;;;;;;;6.65;4.70;;;6.10;99.90;;;;;;4117618;28;20027;-73
2021/01/19 08:23:24;;;;;;;9.38;6.70;;;6.10;99.90;;;;;;4100284;28;20386;-73
2021/01/19 08:25:28;;;;;;;9.20;7.03;;;6.10;99.90;;;;;;4099023;28;20027;-73
2021/01/19 08:27:29;;;;;;;9.88;6.40;;;6.20;99.90;;;;;;4087328;28;20476;-73
2021/01/19 08:29:30;;;;;;;8.55;6.80;;;6.20;99.90;;;;;;4103688;28;20035;-72
2021/01/19 08:31:32;;;;;;;9.55;7.63;;;6.20;99.90;;;;;;4108192;28;20031;-73
2021/01/19 08:33:39;;;;;;;7.90;7.03;;;6.20;99.90;;;;;;4102955;28;20135;-73
2021/01/19 08:35:39;;;;;;;10.25;8.98;;;6.20;99.90;;;;;;4096112;28;20475;-73
2021/01/19 08:37:42;;;;;;;13.68;8.73;;;6.20;99.90;;;;;;4099827;28;20043;-72
2021/01/19 08:39:53;;;;;;;10.05;9.00;;;6.20;99.90;;;;;;4107576;28;20475;-73
2021/01/19 08:41:55;;;;;;;12.57;8.23;;;6.30;99.90;;;;;;4108828;28;20038;-73
2021/01/19 08:43:58;;;;;;;14.32;9.95;;;6.30;99.90;;;;;;4109773;28;20081;-73
2021/01/19 08:46:02;;;;;;;10.07;6.45;;;6.30;99.90;;;;;;4100694;28;20035;-72
2021/01/19 08:48:04;;;;;;;16.67;9.65;;;6.40;99.90;;;;;;4121462;28;20121;-73
2021/01/19 08:50:14;;;;;;;11.73;8.65;;;6.30;99.90;;;;;;4126059;28;20035;-72
2021/01/19 08:52:15;;;;;;;12.27;8.05;;;6.40;99.90;;;;;;4144187;28;20029;-73
2021/01/19 08:54:16;;;;;;;11.77;10.02;;;6.40;99.90;;;;;;4131451;28;20042;-73
2021/01/19 08:56:24;;;;;;;10.63;8.13;;;6.40;99.90;;;;;;4130750;28;20035;-72
2021/01/19 08:58:28;;;;;;;12.05;8.00;;;6.40;99.90;;;;;;4128137;28;20031;-72
2021/01/19 09:00:33;;;;;;;10.68;7.75;;;6.50;99.90;;;;;;4125051;28;20031;-72
2021/01/19 09:02:33;;;;;;;15.48;9.38;;;6.50;99.90;;;;;;4114079;28;20030;-72
2021/01/19 09:04:34;;;;;;;12.25;9.60;;;6.50;99.90;;;;;;4129178;28;20501;-72
2021/01/19 09:06:37;;;;;;;13.10;9.90;;;6.50;99.90;;;;;;4128172;28;20117;-72
2021/01/19 09:08:40;;;;;;;;;;;6.50;99.90;;;;;;4120460;28;20053;-73
2021/01/19 09:10:42;;;;;;;12.25;10.02;;;6.60;99.90;;;;;;4111540;28;20269;-73
2021/01/19 09:12:43;;;;;;;10.25;9.00;;;6.60;99.90;;;;;;4124728;28;20035;-73
2021/01/19 09:14:51;;;;;;;13.80;10.55;;;6.60;99.90;;;;;;4123655;28;20449;-73
2021/01/19 09:16:54;;;;;;;13.52;9.93;;;6.70;99.90;;;;;;4110033;28;20030;-74
2021/01/19 09:18:56;;;;;;;10.65;8.85;;;6.70;99.90;;;;;;4104487;28;20051;-72
2021/01/19 09:21:03;;;;;;;12.77;9.45;;;6.70;99.90;;;;;;4115494;28;20033;-72
2021/01/19 09:23:15;;;;;;;12.90;9.57;;;6.70;99.90;;;;;;4119564;28;20489;-72
2021/01/19 09:25:23;;;;;;;11.52;9.85;;;6.70;99.90;;;;;;4122084;28;20033;-71
2021/01/19 09:27:23;;;;;;;11.70;8.80;;;6.70;99.90;;;;;;4124524;28;20058;-72
2021/01/19 09:29:28;;;;;;;12.82;9.88;;;6.70;99.90;;;;;;4127397;28;20037;-73
2021/01/19 09:31:34;;;;;;;14.65;10.25;;;6.80;99.90;;;;;;4135575;28;20397;-73
2021/01/19 09:33:35;;;;;;;10.52;8.95;;;6.80;99.90;;;;;;4115300;28;20382;-73
2021/01/19 09:35:39;;;;;;;12.48;8.55;;;6.80;99.90;;;;;;4122426;28;20030;-72
2021/01/19 09:37:40;;;;;;;11.75;8.57;;;6.90;99.90;;;;;;4126567;28;20084;-73
2021/01/19 09:39:45;;;;;;;10.57;8.82;;;6.90;99.90;;;;;;4126664;28;20038;-73
2021/01/19 09:41:45;;;;;;;13.40;8.85;;;6.90;99.90;;;;;;4127340;28;20030;-72
2021/01/19 09:43:52;;;;;;;12.65;9.00;;;6.90;99.90;;;;;;4109660;28;20121;-74
2021/01/19 09:45:57;;;;;;;8.93;6.30;;;7.00;99.90;;;;;;4106376;28;20051;-73
2021/01/19 09:47:58;;;;;;;10.18;7.22;;;7.00;99.90;;;;;;4103010;28;20430;-73
2021/01/19 09:49:59;;;;;;;9.75;8.02;;;7.10;99.90;;;;;;4106488;28;20050;-73
2021/01/19 09:52:12;;;;;;;9.30;7.40;;;7.20;99.90;;;;;;4101214;28;20027;-73
2021/01/19 09:54:12;;;;;;;7.25;6.40;;;7.20;99.90;;;;;;4107932;28;20034;-73
2021/01/19 09:56:17;;;;;;;8.23;6.25;;;7.30;99.90;;;;;;4111006;28;20065;-73
2021/01/19 09:58:22;;;;;;;9.05;5.95;;;7.40;99.90;;;;;;4105461;28;20027;-74
2021/01/19 10:00:30;;;;;;;8.55;5.95;;;7.40;99.90;;;;;;4102113;28;20050;-73
2021/01/19 10:02:30;;;;;;;5.28;4.78;;;7.40;99.90;;;;;;4105728;28;20031;-73
2021/01/19 10:04:31;;;;;;;5.65;4.65;;;7.60;99.90;;;;;;4104668;28;20059;-74
2021/01/19 10:06:33;;;;;;;5.10;3.95;;;7.60;99.90;;;;;;4114254;28;20041;-73
2021/01/19 10:08:37;;;;;;;5.25;4.38;;;7.70;99.90;;;;;;4121869;28;20037;-74
2021/01/19 10:10:41;;;;;;;4.63;4.22;;;7.70;99.90;;;;;;4115515;28;20423;-72
2021/01/19 10:12:43;;;;;;;6.95;4.00;;;7.70;99.90;;;;;;4139007;28;20030;-73
2021/01/19 10:14:44;;;;;;;4.57;3.95;;;7.70;99.90;;;;;;4127644;28;20046;-73
2021/01/19 10:16:49;;;;;;;5.45;4.45;;;7.80;99.90;;;;;;4128156;28;20026;-72
2021/01/19 10:18:49;;;;;;;4.75;4.18;;;7.80;99.90;;;;;;4121477;28;20023;-72
2021/01/19 10:20:50;;;;;;;5.57;4.97;;;7.80;99.90;;;;;;4118785;28;20505;-75
2021/01/19 10:22:56;;;;;;;5.45;4.25;;;7.90;99.90;;;;;;4124994;28;20085;-73
2021/01/19 10:24:57;;;;;;;5.57;5.03;;;7.90;99.90;;;;;;4119247;28;20035;-73
2021/01/19 10:27:07;;;;;;;5.13;4.53;;;8.00;99.90;;;;;;4121572;28;20428;-73
2021/01/19 10:29:07;;;;;;;6.95;5.38;;;8.00;99.90;;;;;;4135613;28;20128;-72
2021/01/19 10:31:20;;;;;;;7.03;4.60;;;8.00;99.90;;;;;;4123962;28;20536;-72
2021/01/19 10:33:26;;;;;;;4.38;3.97;;;8.00;99.90;;;;;;4111820;28;20019;-72
2021/01/19 10:35:32;;;;;;;4.30;3.90;;;8.10;99.90;;;;;;4126930;28;20121;-73
2021/01/19 10:37:36;;;;;;;6.15;4.60;;;8.10;99.90;;;;;;4121675;28;20039;-74
2021/01/19 10:39:59;;;;;;;5.78;4.53;;;8.10;99.90;;;;;;4113835;28;20379;-73
2021/01/19 10:41:59;;;;;;;6.15;4.28;;;8.10;99.90;;;;;;4101265;28;20034;-73
2021/01/19 10:44:00;;;;;;;7.68;4.22;;;8.10;99.90;;;;;;4120594;28;20035;-73
2021/01/19 10:46:01;;;;;;;7.13;5.32;;;8.20;99.90;;;;;;4102843;28;20031;-73
2021/01/19 10:48:02;;;;;;;6.30;4.57;;;8.20;99.90;;;;;;4101144;28;20086;-73